createdAt,value
2018-09-26T00:00:48.768Z,21.60
2018-09-26T00:03:22.596Z,26.30
2018-09-26T00:05:51.108Z,33.50
2018-09-26T00:08:19.547Z,27.00
2018-09-26T00:10:48.448Z,36.10
2018-09-26T00:13:17.411Z,50.20
2018-09-26T00:15:45.874Z,50.90
2018-09-26T00:18:14.343Z,41.30
2018-09-26T00:20:42.810Z,56.20
2018-09-26T00:23:11.251Z,62.40
2018-09-26T00:25:39.715Z,48.80
2018-09-26T00:28:08.161Z,69.50
2018-09-26T00:30:36.598Z,53.00
2018-09-26T00:33:05.018Z,56.10
2018-09-26T00:35:33.527Z,72.70
2018-09-26T00:38:01.986Z,69.40
2018-09-26T00:40:30.434Z,66.80
2018-09-26T00:42:58.881Z,68.70
2018-09-26T00:45:27.331Z,65.80
2018-09-26T00:47:55.778Z,66.70
2018-09-26T00:50:24.234Z,63.30
2018-09-26T00:52:52.784Z,56.10
2018-09-26T00:55:21.255Z,58.40
2018-09-26T00:57:49.698Z,53.60
2018-09-26T01:00:18.170Z,42.20
2018-09-26T01:02:46.650Z,53.40
2018-09-26T01:05:15.112Z,28.80
2018-09-26T01:07:43.596Z,35.70
2018-09-26T01:10:12.274Z,56.10
2018-09-26T01:12:40.756Z,67.20
2018-09-26T01:15:09.227Z,57.50
2018-09-26T01:17:37.657Z,54.00
2018-09-26T01:20:06.186Z,56.00
2018-09-26T01:22:34.649Z,49.70
2018-09-26T01:25:03.114Z,68.00
2018-09-26T01:27:34.437Z,75.00
2018-09-26T01:30:04.973Z,71.10
2018-09-26T01:32:33.854Z,72.80
2018-09-26T01:35:02.756Z,78.90
2018-09-26T01:37:31.198Z,87.20
2018-09-26T01:40:00.134Z,85.10
2018-09-26T01:42:28.707Z,89.40
2018-09-26T01:44:57.419Z,90.60
2018-09-26T01:47:25.898Z,82.30
2018-09-26T01:49:54.357Z,88.80
2018-09-26T01:52:22.843Z,93.30
2018-09-26T01:54:51.256Z,92.60
2018-09-26T01:57:19.707Z,96.90
2018-09-26T01:59:48.179Z,96.50
2018-09-26T02:02:16.628Z,94.70
2018-09-26T02:04:45.064Z,95.30
2018-09-26T02:07:13.517Z,98.20
2018-09-26T02:09:41.940Z,99.80
2018-09-26T02:12:10.599Z,99.90
2018-09-26T02:14:39.042Z,97.40
2018-09-26T02:17:07.494Z,99.90
2018-09-26T02:19:35.956Z,93.30
2018-09-26T02:22:04.409Z,94.50
2018-09-26T02:24:32.841Z,95.10
2018-09-26T02:27:01.283Z,95.60
2018-09-26T02:29:29.766Z,92.10
2018-09-26T02:31:58.210Z,94.60
2018-09-26T02:34:26.651Z,93.60
2018-09-26T02:36:55.089Z,95.40
2018-09-26T02:39:23.563Z,88.20
2018-09-26T02:41:51.987Z,92.20
2018-09-26T02:44:20.428Z,93.70
2018-09-26T02:46:48.847Z,94.10
2018-09-26T02:49:17.265Z,93.40
2018-09-26T02:51:45.742Z,97.00
2018-09-26T02:54:14.177Z,95.50
2018-09-26T02:56:42.619Z,97.50
2018-09-26T02:59:11.114Z,98.20
2018-09-26T03:01:39.668Z,99.90
2018-09-26T03:04:08.103Z,99.90
2018-09-26T03:06:36.561Z,99.90
2018-09-26T03:09:06.996Z,99.90
2018-09-26T03:11:35.459Z,99.90
2018-09-26T03:14:03.917Z,99.90
2018-09-26T03:16:32.472Z,99.90
2018-09-26T03:19:01.141Z,99.90
2018-09-26T03:21:29.624Z,99.90
2018-09-26T03:23:58.049Z,99.90
2018-09-26T03:26:26.692Z,99.90
2018-09-26T03:28:55.271Z,99.90
2018-09-26T03:31:23.700Z,99.90
2018-09-26T03:33:52.232Z,99.90
2018-09-26T03:36:20.593Z,99.90
2018-09-26T03:38:49.098Z,99.90
2018-09-26T03:41:17.525Z,99.90
2018-09-26T03:43:46.026Z,99.90
2018-09-26T03:46:14.472Z,99.90
2018-09-26T03:48:43.041Z,99.90
2018-09-26T03:51:11.508Z,99.90
2018-09-26T03:53:39.940Z,99.90
2018-09-26T03:56:08.399Z,99.90
2018-09-26T03:58:37.078Z,99.90
2018-09-26T04:01:05.562Z,99.90
2018-09-26T04:03:34.088Z,99.90
2018-09-26T04:06:02.550Z,99.90
2018-09-26T04:08:31.121Z,99.90
2018-09-26T04:10:59.575Z,99.90
2018-09-26T04:13:28.014Z,99.90
2018-09-26T04:15:56.458Z,99.90
2018-09-26T04:18:25.998Z,99.90
2018-09-26T04:20:55.123Z,99.90
2018-09-26T04:23:23.619Z,99.90
2018-09-26T04:25:52.182Z,99.90
2018-09-26T04:28:20.619Z,99.90
2018-09-26T04:30:49.085Z,99.90
2018-09-26T04:33:17.754Z,99.90
2018-09-26T04:35:46.018Z,99.90
2018-09-26T04:38:14.446Z,99.90
2018-09-26T04:40:42.893Z,99.90
2018-09-26T04:43:11.354Z,99.90
2018-09-26T04:45:39.785Z,99.90
2018-09-26T04:48:08.218Z,99.90
2018-09-26T04:50:36.696Z,99.90
2018-09-26T04:53:05.446Z,99.90
2018-09-26T04:55:33.906Z,99.90
2018-09-26T04:58:02.442Z,99.90
2018-09-26T05:00:30.898Z,99.90
2018-09-26T05:02:59.354Z,99.90
2018-09-26T05:05:27.824Z,99.90
2018-09-26T05:07:56.253Z,99.90
2018-09-26T05:10:24.780Z,99.90
2018-09-26T05:12:53.212Z,99.90
2018-09-26T05:15:21.701Z,99.90
2018-09-26T05:17:50.158Z,99.90
2018-09-26T05:20:18.686Z,99.90
2018-09-26T05:22:47.151Z,99.90
2018-09-26T05:25:15.598Z,99.90
2018-09-26T05:27:44.058Z,99.90
2018-09-26T05:30:12.551Z,99.90
2018-09-26T05:32:40.974Z,99.90
2018-09-26T05:35:09.579Z,99.90
2018-09-26T05:37:38.000Z,99.90
2018-09-26T05:40:06.474Z,99.90
2018-09-26T05:42:34.952Z,99.90
2018-09-26T05:45:03.448Z,99.90
2018-09-26T05:47:31.935Z,99.90
2018-09-26T05:50:00.406Z,99.90
2018-09-26T05:52:28.870Z,99.90
2018-09-26T05:54:57.341Z,99.90
2018-09-26T05:57:25.795Z,99.90
2018-09-26T05:59:54.381Z,99.90
2018-09-26T06:02:22.894Z,99.90
2018-09-26T06:04:51.390Z,99.90
2018-09-26T06:07:19.887Z,98.50
2018-09-26T06:09:48.349Z,96.30
2018-09-26T06:12:16.782Z,93.80
2018-09-26T06:14:45.258Z,94.10
2018-09-26T06:17:13.764Z,94.50
2018-09-26T06:19:42.285Z,80.80
2018-09-26T06:22:10.809Z,64.40
2018-09-26T06:24:39.251Z,44.00
2018-09-26T06:27:08.129Z,33.90
2018-09-26T06:29:36.854Z,3.80
2018-09-26T06:32:05.296Z,1.00
2018-09-26T06:34:33.748Z,1.00
2018-09-26T06:37:02.207Z,99.90
2018-09-26T06:39:30.894Z,28.90
2018-09-26T06:41:59.354Z,99.90
2018-09-26T06:44:27.796Z,99.90
2018-09-26T06:46:56.215Z,1.00
2018-09-26T06:49:24.663Z,1.00
2018-09-26T06:51:53.167Z,62.30
2018-09-26T06:54:21.643Z,1.00
2018-09-26T06:56:50.105Z,28.70
2018-09-26T06:59:18.566Z,99.90
2018-09-26T07:01:47.022Z,99.90
2018-09-26T07:04:15.542Z,99.90
2018-09-26T07:06:44.082Z,1.00
2018-09-26T07:09:12.591Z,99.90
2018-09-26T07:11:41.042Z,99.90
2018-09-26T07:14:09.506Z,99.90
2018-09-26T07:16:38.018Z,99.90
2018-09-26T07:19:06.524Z,99.90
2018-09-26T07:21:35.841Z,1.00
2018-09-26T07:24:04.374Z,1.00
2018-09-26T07:26:32.846Z,99.90
2018-09-26T07:29:01.326Z,99.90
2018-09-26T07:31:29.887Z,1.00
2018-09-26T07:33:58.327Z,1.00
2018-09-26T07:36:26.796Z,1.00
2018-09-26T07:38:55.292Z,1.00
2018-09-26T07:41:23.750Z,99.90
2018-09-26T07:43:52.211Z,99.90
2018-09-26T07:46:20.661Z,97.20
2018-09-26T07:48:49.301Z,99.90
2018-09-26T07:51:17.834Z,99.90
2018-09-26T07:53:46.329Z,99.90
2018-09-26T07:56:14.821Z,1.00
2018-09-26T07:58:43.287Z,99.90
2018-09-26T08:01:11.783Z,99.90
2018-09-26T08:03:40.279Z,99.90
2018-09-26T08:06:09.014Z,99.90
2018-09-26T08:08:37.670Z,99.90
2018-09-26T08:11:06.154Z,99.90
2018-09-26T08:13:34.633Z,99.90
2018-09-26T08:16:03.063Z,99.90
2018-09-26T08:18:31.603Z,99.90
2018-09-26T08:21:00.048Z,99.90
2018-09-26T08:23:28.527Z,99.90
2018-09-26T08:25:56.983Z,99.90
2018-09-26T08:28:25.463Z,99.90
2018-09-26T08:30:53.891Z,99.90
2018-09-26T08:33:22.362Z,98.60
2018-09-26T08:35:50.839Z,99.90
2018-09-26T08:38:19.326Z,99.90
2018-09-26T08:40:47.785Z,99.90
2018-09-26T08:43:16.254Z,99.90
2018-09-26T08:45:44.728Z,98.10
2018-09-26T08:48:13.196Z,91.20
2018-09-26T08:50:41.660Z,86.90
2018-09-26T08:53:10.311Z,73.70
2018-09-26T08:55:38.802Z,66.60
2018-09-26T08:58:07.265Z,78.00
2018-09-26T09:00:36.691Z,67.00
2018-09-26T09:03:06.606Z,72.40
2018-09-26T09:05:35.202Z,73.30
2018-09-26T09:08:03.661Z,70.70
2018-09-26T09:10:33.138Z,65.10
2018-09-26T09:13:01.646Z,73.20
2018-09-26T09:15:30.117Z,70.90
2018-09-26T09:17:58.598Z,80.40
2018-09-26T09:20:27.085Z,72.60
2018-09-26T09:22:55.572Z,94.50
2018-09-26T09:25:24.015Z,92.80
2018-09-26T09:27:52.478Z,98.80
2018-09-26T09:30:21.010Z,99.90
2018-09-26T09:32:49.875Z,99.90
2018-09-26T09:35:18.623Z,99.90
2018-09-26T09:37:47.092Z,99.90
2018-09-26T09:40:15.598Z,99.90
2018-09-26T09:42:44.990Z,99.90
2018-09-26T09:45:13.497Z,99.90
2018-09-26T09:47:41.960Z,99.90
2018-09-26T09:50:10.470Z,99.90
2018-09-26T09:52:38.939Z,99.90
2018-09-26T09:55:07.461Z,99.90
2018-09-26T09:57:35.897Z,99.90
2018-09-26T10:00:04.461Z,99.90
2018-09-26T10:02:33.003Z,99.90
2018-09-26T10:05:01.463Z,99.90
2018-09-26T10:07:29.907Z,99.90
2018-09-26T10:09:58.392Z,99.90
2018-09-26T10:12:26.851Z,99.90
2018-09-26T10:14:55.321Z,99.90
2018-09-26T10:17:23.736Z,99.90
2018-09-26T10:19:52.160Z,99.90
2018-09-26T10:22:20.573Z,99.90
2018-09-26T10:24:48.974Z,99.90
2018-09-26T10:27:17.411Z,99.90
2018-09-26T10:29:45.862Z,99.90
2018-09-26T10:32:14.301Z,99.90
2018-09-26T10:34:42.860Z,99.90
2018-09-26T10:37:11.279Z,99.90
2018-09-26T10:39:39.706Z,99.90
2018-09-26T10:42:08.148Z,99.90
2018-09-26T10:44:36.602Z,99.90
2018-09-26T10:47:05.038Z,99.90
2018-09-26T10:49:33.457Z,99.90
2018-09-26T10:52:01.910Z,99.90
2018-09-26T10:54:30.319Z,99.90
2018-09-26T10:56:58.736Z,93.30
2018-09-26T10:59:27.172Z,92.20
2018-09-26T11:01:55.589Z,99.40
2018-09-26T11:04:24.107Z,94.80
2018-09-26T11:06:52.482Z,99.60
2018-09-26T11:09:20.947Z,99.90
2018-09-26T11:11:49.367Z,99.90
2018-09-26T11:14:17.891Z,93.90
2018-09-26T11:16:46.290Z,85.70
2018-09-26T11:19:14.728Z,82.40
2018-09-26T11:21:43.152Z,83.30
2018-09-26T11:24:11.541Z,79.10
2018-09-26T11:26:40.177Z,74.00
2018-09-26T11:29:08.522Z,83.10
2018-09-26T11:31:37.307Z,74.70
2018-09-26T11:34:05.768Z,70.60
2018-09-26T11:36:34.235Z,68.80
2018-09-26T11:39:02.716Z,74.70
2018-09-26T11:41:31.201Z,72.00
2018-09-26T11:43:59.618Z,63.30
2018-09-26T11:46:28.042Z,69.70
2018-09-26T11:48:56.444Z,70.70
2018-09-26T11:51:24.876Z,69.00
2018-09-26T11:53:53.306Z,70.10
2018-09-26T11:56:21.789Z,77.90
2018-09-26T11:58:50.171Z,73.00
2018-09-26T12:01:18.599Z,66.00
2018-09-26T12:03:47.022Z,69.70
2018-09-26T12:06:15.512Z,75.50
2018-09-26T12:08:43.939Z,73.40
2018-09-26T12:11:12.354Z,70.30
2018-09-26T12:13:40.917Z,64.70
2018-09-26T12:16:09.367Z,60.90
2018-09-26T12:18:37.823Z,65.10
2018-09-26T12:21:06.410Z,67.90
2018-09-26T12:23:34.924Z,63.60
2018-09-26T12:26:03.361Z,60.50
2018-09-26T12:28:31.785Z,62.60
2018-09-26T12:31:00.203Z,72.30
2018-09-26T12:33:28.663Z,67.60
2018-09-26T12:35:57.102Z,71.00
2018-09-26T12:38:25.524Z,66.80
2018-09-26T12:40:53.949Z,69.50
2018-09-26T12:43:22.383Z,69.70
2018-09-26T12:45:51.478Z,77.30
2018-09-26T12:48:19.926Z,84.60
2018-09-26T12:50:48.331Z,90.80
2018-09-26T12:53:16.879Z,92.70
2018-09-26T12:55:45.304Z,92.70
2018-09-26T12:58:13.746Z,92.10
2018-09-26T13:00:42.247Z,89.60
2018-09-26T13:03:10.652Z,83.40
2018-09-26T13:05:39.107Z,86.60
2018-09-26T13:08:07.846Z,79.80
2018-09-26T13:10:44.535Z,79.60
2018-09-26T13:13:13.243Z,79.50
2018-09-26T13:15:41.645Z,84.80
2018-09-26T13:18:10.135Z,79.90
2018-09-26T13:20:38.483Z,78.20
2018-09-26T13:23:06.924Z,73.40
2018-09-26T13:25:35.488Z,76.60
2018-09-26T13:28:03.840Z,78.30
2018-09-26T13:30:32.251Z,71.60
2018-09-26T13:33:00.687Z,73.00
2018-09-26T13:35:29.108Z,82.90
2018-09-26T13:37:57.513Z,86.90
2018-09-26T13:40:26.043Z,87.80
2018-09-26T13:42:54.397Z,90.50
2018-09-26T13:45:22.829Z,90.40
2018-09-26T13:47:51.245Z,92.20
2018-09-26T13:50:19.652Z,92.80
2018-09-26T13:52:48.116Z,90.70
2018-09-26T13:55:16.545Z,92.90
2018-09-26T13:57:44.998Z,86.10
2018-09-26T14:00:16.401Z,97.20
2018-09-26T14:02:45.673Z,91.90
2018-09-26T14:05:14.138Z,92.40
2018-09-26T14:07:42.586Z,95.00
2018-09-26T14:10:11.034Z,99.90
2018-09-26T14:12:39.475Z,96.50
2018-09-26T14:15:08.128Z,90.70
2018-09-26T14:17:36.550Z,90.70
2018-09-26T14:20:05.058Z,88.40
2018-09-26T14:22:34.984Z,90.10
2018-09-26T14:25:03.439Z,91.10
2018-09-26T14:27:31.844Z,91.00
2018-09-26T14:30:00.512Z,90.50
2018-09-26T14:32:28.886Z,92.90
2018-09-26T14:34:57.299Z,91.30
2018-09-26T14:37:25.703Z,91.00
2018-09-26T14:39:54.160Z,91.10
2018-09-26T14:42:22.598Z,92.40
2018-09-26T14:44:51.075Z,93.00
2018-09-26T14:47:19.599Z,93.80
2018-09-26T14:49:48.013Z,92.70
2018-09-26T14:52:16.443Z,91.00
2018-09-26T14:54:44.874Z,87.70
2018-09-26T14:57:13.384Z,89.10
2018-09-26T14:59:41.745Z,90.00
2018-09-26T15:02:10.263Z,87.80
2018-09-26T15:04:38.683Z,88.50
2018-09-26T15:07:07.126Z,84.40
2018-09-26T15:09:35.558Z,88.60
2018-09-26T15:12:04.092Z,84.10
2018-09-26T15:14:32.448Z,82.60
2018-09-26T15:17:00.899Z,82.20
2018-09-26T15:19:29.497Z,80.70
2018-09-26T15:21:57.950Z,80.00
2018-09-26T15:24:26.555Z,79.30
2018-09-26T15:26:54.930Z,79.40
2018-09-26T15:29:23.348Z,74.80
2018-09-26T15:31:51.775Z,76.50
2018-09-26T15:34:20.209Z,79.60
2018-09-26T15:36:48.833Z,78.80
2018-09-26T15:39:17.246Z,80.20
2018-09-26T15:41:45.698Z,78.50
2018-09-26T15:44:14.244Z,76.20
2018-09-26T15:46:42.722Z,76.10
2018-09-26T15:49:11.214Z,70.90
2018-09-26T15:51:39.664Z,64.80
2018-09-26T15:54:08.701Z,64.50
2018-09-26T15:56:37.178Z,62.30
2018-09-26T15:59:05.591Z,57.70
2018-09-26T16:01:34.039Z,58.00
2018-09-26T16:04:02.487Z,56.00
2018-09-26T16:06:31.015Z,54.00
2018-09-26T16:08:59.664Z,55.20
2018-09-26T16:11:28.238Z,55.50
2018-09-26T16:13:56.744Z,53.20
2018-09-26T16:16:25.221Z,52.40
2018-09-26T16:18:53.618Z,50.00
2018-09-26T16:21:22.161Z,50.90
2018-09-26T16:23:50.569Z,47.70
2018-09-26T16:26:19.101Z,49.00
2018-09-26T16:28:47.472Z,48.80
2018-09-26T16:31:16.087Z,49.10
2018-09-26T16:33:44.507Z,50.20
2018-09-26T16:36:13.016Z,47.00
2018-09-26T16:38:41.524Z,43.60
2018-09-26T16:41:09.958Z,44.50
2018-09-26T16:43:38.409Z,46.50
2018-09-26T16:46:06.859Z,44.70
2018-09-26T16:48:35.299Z,44.90
2018-09-26T16:51:03.729Z,43.80
2018-09-26T16:53:32.205Z,45.30
2018-09-26T16:56:01.059Z,46.20
2018-09-26T16:58:29.503Z,46.80
2018-09-26T17:00:58.678Z,47.90
2018-09-26T17:03:27.139Z,57.90
2018-09-26T17:05:55.581Z,66.20
2018-09-26T17:08:24.146Z,82.60
2018-09-26T17:10:52.542Z,94.70
2018-09-26T17:13:21.071Z,97.80
2018-09-26T17:15:49.590Z,99.90
2018-09-26T17:18:18.064Z,99.90
2018-09-26T17:20:46.508Z,99.90
2018-09-26T17:23:14.916Z,99.90
2018-09-26T17:25:43.358Z,99.90
2018-09-26T17:28:11.872Z,99.90
2018-09-26T17:30:40.224Z,99.90
2018-09-26T17:33:08.643Z,99.90
2018-09-26T17:35:37.098Z,99.90
2018-09-26T17:38:05.575Z,99.90
2018-09-26T17:40:34.021Z,99.90
2018-09-26T17:43:02.495Z,99.90
2018-09-26T17:45:30.959Z,99.90
2018-09-26T17:47:59.362Z,99.90
2018-09-26T17:50:27.825Z,99.90
2018-09-26T17:52:56.292Z,99.90
2018-09-26T17:55:24.709Z,99.90
2018-09-26T17:57:53.155Z,99.90
2018-09-26T18:00:21.625Z,99.90
2018-09-26T18:02:50.330Z,1.00
2018-09-26T18:05:18.781Z,1.00
2018-09-26T18:07:47.211Z,1.00
2018-09-26T18:10:15.680Z,1.00
2018-09-26T18:12:44.235Z,99.90
2018-09-26T18:15:12.718Z,99.90
2018-09-26T18:17:41.171Z,94.60
2018-09-26T18:20:09.667Z,99.90
2018-09-26T18:22:38.131Z,28.80
2018-09-26T18:25:06.620Z,1.00
2018-09-26T18:27:35.344Z,99.90
2018-09-26T18:30:04.136Z,99.90
2018-09-26T18:32:32.620Z,6.00
2018-09-26T18:35:01.055Z,1.00
2018-09-26T18:37:29.526Z,1.00
2018-09-26T18:39:58.004Z,99.90
2018-09-26T18:42:26.464Z,99.90
2018-09-26T18:44:55.015Z,1.00
2018-09-26T18:47:23.710Z,99.90
2018-09-26T18:49:52.131Z,1.00
2018-09-26T18:52:20.609Z,99.90
2018-09-26T18:54:49.514Z,99.90
2018-09-26T18:57:17.953Z,99.90
2018-09-26T18:59:46.406Z,1.00
2018-09-26T19:02:14.886Z,1.00
2018-09-26T19:04:43.448Z,57.30
2018-09-26T19:07:11.806Z,99.90
2018-09-26T19:09:40.269Z,99.90
2018-09-26T19:12:08.827Z,99.90
2018-09-26T19:14:37.211Z,99.90
2018-09-26T19:17:05.800Z,99.90
2018-09-26T19:19:34.222Z,99.90
2018-09-26T19:22:02.695Z,99.90
2018-09-26T19:24:31.240Z,1.00
2018-09-26T19:26:59.727Z,1.00
2018-09-26T19:29:28.146Z,99.90
2018-09-26T19:31:56.631Z,99.90
2018-09-26T19:34:25.094Z,99.90
2018-09-26T19:36:53.520Z,1.00
2018-09-26T19:39:22.072Z,1.00
2018-09-26T19:41:50.510Z,1.00
2018-09-26T19:44:19.908Z,1.00
2018-09-26T19:46:48.345Z,1.00
2018-09-26T19:49:16.832Z,1.00
2018-09-26T19:51:45.319Z,1.00
2018-09-26T19:54:13.844Z,1.00
2018-09-26T19:56:42.374Z,1.00
2018-09-26T19:59:10.832Z,1.00
2018-09-26T20:01:39.276Z,1.00
2018-09-26T20:04:07.771Z,1.00
2018-09-26T20:06:36.246Z,1.00
2018-09-26T20:09:08.015Z,1.00
2018-09-26T20:11:36.527Z,1.00
2018-09-26T20:14:04.965Z,1.00
2018-09-26T20:16:33.457Z,1.00
2018-09-26T20:19:01.882Z,1.00
2018-09-26T20:21:30.384Z,1.00
2018-09-26T20:23:58.878Z,1.00
2018-09-26T20:26:27.396Z,1.00
2018-09-26T20:28:55.833Z,1.00
2018-09-26T20:31:24.257Z,19.00
2018-09-26T20:33:52.759Z,11.90
2018-09-26T20:36:21.237Z,10.60
2018-09-26T20:38:49.805Z,22.80
2018-09-26T20:41:18.245Z,25.50
2018-09-26T20:43:46.738Z,25.30
2018-09-26T20:46:15.177Z,28.20
2018-09-26T20:48:43.603Z,27.00
2018-09-26T20:51:12.059Z,52.50
2018-09-26T20:53:40.496Z,47.90
2018-09-26T20:56:08.975Z,51.00
2018-09-26T20:58:37.405Z,62.50
2018-09-26T21:01:05.827Z,59.60
2018-09-26T21:03:34.256Z,69.10
2018-09-26T21:06:02.739Z,68.90
2018-09-26T21:08:31.166Z,73.80
2018-09-26T21:10:59.596Z,79.10
2018-09-26T21:13:28.073Z,61.10
2018-09-26T21:15:56.507Z,93.10
2018-09-26T21:18:25.039Z,90.50
2018-09-26T21:20:53.490Z,85.20
2018-09-26T21:23:21.930Z,83.40
2018-09-26T21:25:50.341Z,85.30
2018-09-26T21:28:18.768Z,90.10
2018-09-26T21:30:47.189Z,81.20
2018-09-26T21:33:15.632Z,90.20
2018-09-26T21:35:44.190Z,82.70
2018-09-26T21:38:12.657Z,92.30
2018-09-26T21:40:41.153Z,92.90
2018-09-26T21:43:09.599Z,94.30
2018-09-26T21:45:38.019Z,96.30
2018-09-26T21:48:06.498Z,96.70
2018-09-26T21:50:34.918Z,96.20
2018-09-26T21:53:03.415Z,97.50
2018-09-26T21:55:31.899Z,92.80
2018-09-26T21:58:00.343Z,95.40
2018-09-26T22:00:28.827Z,97.80
2018-09-26T22:02:57.433Z,97.30
2018-09-26T22:05:26.114Z,98.40
2018-09-26T22:07:54.649Z,99.90
2018-09-26T22:10:23.251Z,99.90
2018-09-26T22:12:51.794Z,99.90
2018-09-26T22:15:23.780Z,99.90
2018-09-26T22:17:53.558Z,99.90
2018-09-26T22:20:22.175Z,99.90
2018-09-26T22:22:50.993Z,99.90
2018-09-26T22:25:19.650Z,99.90
2018-09-26T22:27:48.261Z,99.90
2018-09-26T22:30:16.819Z,99.90
2018-09-26T22:32:45.371Z,99.90
2018-09-26T22:35:13.956Z,99.90
2018-09-26T22:37:42.516Z,99.90
2018-09-26T22:40:11.082Z,99.90
2018-09-26T22:42:39.663Z,99.90
2018-09-26T22:45:08.223Z,99.90
2018-09-26T22:47:36.818Z,99.90
2018-09-26T22:50:06.514Z,99.90
2018-09-26T22:52:35.088Z,99.90
2018-09-26T22:55:03.634Z,99.90
2018-09-26T22:57:32.200Z,99.90
2018-09-26T23:00:00.741Z,99.90
2018-09-26T23:02:29.300Z,99.90
2018-09-26T23:04:57.857Z,99.90
2018-09-26T23:07:26.414Z,99.90
2018-09-26T23:09:55.025Z,99.90
2018-09-26T23:12:23.610Z,99.90
2018-09-26T23:14:52.198Z,99.90
2018-09-26T23:17:20.794Z,99.90
2018-09-26T23:19:49.335Z,99.90
2018-09-26T23:22:17.901Z,99.90
2018-09-26T23:24:46.442Z,99.90
2018-09-26T23:27:15.031Z,99.90
2018-09-26T23:29:43.594Z,99.90
2018-09-26T23:32:12.152Z,99.90
2018-09-26T23:34:40.755Z,99.90
2018-09-26T23:37:09.299Z,99.90
2018-09-26T23:39:37.839Z,99.90
2018-09-26T23:42:06.693Z,99.90
2018-09-26T23:44:35.267Z,99.90
2018-09-26T23:47:03.862Z,99.90
2018-09-26T23:49:32.418Z,99.90
2018-09-26T23:52:00.976Z,99.90
2018-09-26T23:54:29.605Z,99.90
2018-09-26T23:56:58.183Z,99.90
2018-09-26T23:59:26.786Z,99.90
